createdAt,value
2023-05-22T00:01:46.949Z,973.00
2023-05-22T00:04:21.188Z,974.97
2023-05-22T00:06:49.295Z,967.42
2023-05-22T00:09:17.451Z,972.42
2023-05-22T00:11:45.118Z,981.42
2023-05-22T00:14:16.187Z,981.88
2023-05-22T00:16:44.245Z,988.40
2023-05-22T00:19:16.807Z,987.10
2023-05-22T00:21:44.628Z,987.23
2023-05-22T00:24:12.370Z,984.65
2023-05-22T00:26:39.908Z,978.60
2023-05-22T00:29:08.103Z,989.05
2023-05-22T00:31:35.836Z,990.08
2023-05-22T00:34:03.733Z,996.20
2023-05-22T00:36:31.253Z,992.92
2023-05-22T00:38:58.838Z,992.17
2023-05-22T00:41:26.865Z,994.63
2023-05-22T00:43:55.226Z,978.20
2023-05-22T00:46:23.187Z,986.75
2023-05-22T00:48:52.568Z,987.10
2023-05-22T00:51:24.696Z,987.97
2023-05-22T00:53:54.733Z,996.97
2023-05-22T00:56:23.291Z,992.90
2023-05-22T00:58:51.035Z,993.25
2023-05-22T01:01:19.325Z,992.67
2023-05-22T01:03:48.148Z,996.85
2023-05-22T01:06:18.321Z,993.63
2023-05-22T01:08:46.056Z,995.85
2023-05-22T01:11:26.956Z,999.40
2023-05-22T01:14:21.024Z,998.60
2023-05-22T01:17:22.829Z,994.67
2023-05-22T01:20:16.589Z,993.72
2023-05-22T01:23:21.514Z,995.45
2023-05-22T01:26:03.722Z,998.47
2023-05-22T01:29:12.206Z,999.90
2023-05-22T01:31:43.179Z,999.90
2023-05-22T01:34:12.331Z,994.60
2023-05-22T01:36:41.999Z,993.58
2023-05-22T01:39:10.233Z,990.33
2023-05-22T01:41:37.772Z,992.75
2023-05-22T01:44:05.591Z,991.78
2023-05-22T01:46:33.760Z,991.58
2023-05-22T01:49:01.387Z,990.87
2023-05-22T01:51:48.649Z,991.83
2023-05-22T01:54:22.688Z,982.90
2023-05-22T01:57:15.710Z,983.22
2023-05-22T01:59:59.290Z,984.13
2023-05-22T02:02:29.071Z,988.53
2023-05-22T02:05:18.997Z,986.40
2023-05-22T02:08:02.693Z,988.30
2023-05-22T02:10:32.407Z,990.03
2023-05-22T02:13:00.475Z,990.75
2023-05-22T02:15:28.487Z,988.42
2023-05-22T02:17:59.485Z,987.63
2023-05-22T02:20:27.227Z,982.60
2023-05-22T02:22:55.327Z,983.78
2023-05-22T02:25:23.772Z,981.93
2023-05-22T02:27:51.391Z,981.67
2023-05-22T02:30:19.244Z,979.55
2023-05-22T02:32:50.541Z,978.83
2023-05-22T02:35:18.737Z,974.15
2023-05-22T02:37:46.349Z,973.70
2023-05-22T02:40:15.629Z,971.40
2023-05-22T02:42:43.766Z,971.25
2023-05-22T02:45:12.661Z,968.85
2023-05-22T02:47:40.254Z,966.42
2023-05-22T02:50:08.055Z,969.03
2023-05-22T02:52:37.236Z,967.83
2023-05-22T02:55:05.535Z,965.03
2023-05-22T02:57:34.216Z,964.88
2023-05-22T03:00:02.086Z,963.63
2023-05-22T03:02:32.665Z,962.55
2023-05-22T03:05:00.411Z,961.92
2023-05-22T03:07:29.710Z,961.90
2023-05-22T03:09:58.302Z,965.92
2023-05-22T03:12:25.997Z,960.47
2023-05-22T03:14:53.795Z,960.67
2023-05-22T03:17:21.676Z,963.07
2023-05-22T03:19:49.267Z,965.03
2023-05-22T03:22:18.698Z,963.03
2023-05-22T03:24:46.446Z,964.03
2023-05-22T03:27:17.277Z,964.65
2023-05-22T03:29:47.271Z,964.42
2023-05-22T03:32:16.110Z,964.65
2023-05-22T03:34:43.904Z,965.53
2023-05-22T03:37:12.347Z,960.43
2023-05-22T03:39:40.551Z,961.47
2023-05-22T03:42:19.266Z,955.43
2023-05-22T03:44:47.002Z,955.17
2023-05-22T03:47:14.534Z,955.03
2023-05-22T03:49:42.635Z,953.47
2023-05-22T03:52:10.802Z,952.92
2023-05-22T03:54:38.422Z,951.92
2023-05-22T03:57:06.457Z,954.40
2023-05-22T03:59:34.038Z,954.90
2023-05-22T04:02:01.741Z,953.13
2023-05-22T04:04:30.278Z,951.58
2023-05-22T04:06:59.313Z,950.50
2023-05-22T04:09:27.783Z,954.15
2023-05-22T04:11:58.853Z,950.00
2023-05-22T04:14:26.416Z,952.55
2023-05-22T04:16:54.419Z,956.20
2023-05-22T04:19:22.508Z,956.67
2023-05-22T04:21:50.176Z,958.60
2023-05-22T04:24:18.559Z,962.25
2023-05-22T04:26:46.489Z,962.33
2023-05-22T04:29:14.692Z,961.13
2023-05-22T04:31:44.554Z,960.25
2023-05-22T04:34:15.375Z,961.13
2023-05-22T04:36:45.383Z,963.08
2023-05-22T04:39:17.058Z,964.30
2023-05-22T04:41:46.020Z,965.58
2023-05-22T04:44:14.415Z,965.83
2023-05-22T04:46:42.328Z,970.05
2023-05-22T04:49:11.414Z,974.53
2023-05-22T04:51:39.442Z,974.70
2023-05-22T04:54:26.084Z,977.22
2023-05-22T04:57:11.978Z,973.75
2023-05-22T04:59:58.797Z,977.83
2023-05-22T05:02:26.381Z,982.95
2023-05-22T05:04:54.097Z,987.13
2023-05-22T05:07:24.251Z,987.15
2023-05-22T05:09:51.890Z,991.17
2023-05-22T05:12:19.372Z,993.27
2023-05-22T05:14:47.295Z,994.97
2023-05-22T05:17:16.094Z,997.00
2023-05-22T05:19:44.015Z,999.90
2023-05-22T05:22:12.031Z,999.90
2023-05-22T05:24:40.038Z,999.90
2023-05-22T05:27:07.842Z,999.90
2023-05-22T05:29:36.953Z,999.90
2023-05-22T05:32:13.000Z,999.90
2023-05-22T05:35:00.905Z,999.90
2023-05-22T05:37:43.610Z,999.90
2023-05-22T05:40:12.618Z,999.90
2023-05-22T05:42:45.470Z,999.90
2023-05-22T05:45:14.936Z,999.90
2023-05-22T05:47:43.781Z,999.90
2023-05-22T05:50:12.691Z,999.90
2023-05-22T05:52:40.471Z,999.90
2023-05-22T05:55:12.408Z,999.90
2023-05-22T05:57:41.738Z,999.90
2023-05-22T06:00:14.411Z,999.90
2023-05-22T06:02:43.045Z,999.90
2023-05-22T06:05:29.425Z,999.90
2023-05-22T06:08:08.666Z,999.90
2023-05-22T06:10:37.515Z,999.90
2023-05-22T06:13:14.240Z,999.90
2023-05-22T06:15:42.015Z,999.90
2023-05-22T06:18:09.938Z,999.90
2023-05-22T06:20:39.780Z,999.90
2023-05-22T06:23:08.581Z,999.90
2023-05-22T06:25:37.523Z,999.90
2023-05-22T06:28:06.111Z,999.90
2023-05-22T06:30:40.090Z,999.90
2023-05-22T06:33:12.506Z,999.90
2023-05-22T06:35:42.274Z,999.90
2023-05-22T06:38:10.772Z,999.90
2023-05-22T06:40:40.522Z,999.90
2023-05-22T06:43:14.524Z,999.90
2023-05-22T06:45:50.583Z,999.90
2023-05-22T06:48:24.247Z,999.90
2023-05-22T06:51:06.953Z,999.90
2023-05-22T06:53:35.685Z,999.90
2023-05-22T06:56:03.398Z,999.90
2023-05-22T06:58:49.449Z,999.90
2023-05-22T07:01:17.538Z,999.90
2023-05-22T07:03:58.407Z,999.90
2023-05-22T07:06:41.733Z,999.90
2023-05-22T07:09:11.351Z,999.90
2023-05-22T07:11:39.572Z,999.90
2023-05-22T07:14:08.061Z,999.90
2023-05-22T07:16:37.065Z,999.90
2023-05-22T07:19:06.686Z,999.90
2023-05-22T07:21:38.086Z,999.90
2023-05-22T07:24:09.949Z,999.90
2023-05-22T07:26:46.702Z,999.90
2023-05-22T07:29:15.413Z,999.90
2023-05-22T07:31:45.166Z,999.90
2023-05-22T07:34:12.701Z,999.90
2023-05-22T07:36:40.941Z,999.90
2023-05-22T07:39:09.756Z,999.90
2023-05-22T07:41:41.128Z,999.90
2023-05-22T07:44:12.549Z,999.90
2023-05-22T07:46:41.553Z,999.90
2023-05-22T07:49:13.019Z,999.90
2023-05-22T07:51:43.305Z,999.90
2023-05-22T07:54:11.762Z,999.90
2023-05-22T07:56:42.791Z,999.90
2023-05-22T07:59:12.128Z,999.90
2023-05-22T08:01:41.862Z,999.90
2023-05-22T08:04:10.302Z,999.90
2023-05-22T08:06:39.586Z,999.90
2023-05-22T08:09:07.245Z,999.90
2023-05-22T08:11:39.742Z,999.90
2023-05-22T08:14:08.428Z,999.90
2023-05-22T08:16:36.517Z,999.90
2023-05-22T08:19:09.129Z,999.90
2023-05-22T08:21:37.823Z,999.90
2023-05-22T08:24:06.096Z,999.90
2023-05-22T08:26:33.968Z,999.90
2023-05-22T08:29:01.715Z,999.90
2023-05-22T08:31:29.565Z,999.90
2023-05-22T08:34:03.261Z,999.90
2023-05-22T08:36:33.989Z,999.90
2023-05-22T08:39:02.133Z,999.90
2023-05-22T08:41:30.572Z,999.90
2023-05-22T08:43:58.687Z,999.90
2023-05-22T08:46:26.692Z,999.90
2023-05-22T08:48:57.494Z,999.90
2023-05-22T08:51:31.610Z,999.90
2023-05-22T08:54:01.266Z,999.90
2023-05-22T08:56:31.036Z,999.90
2023-05-22T08:59:00.849Z,999.90
2023-05-22T09:01:29.865Z,999.90
2023-05-22T09:04:02.513Z,999.90
2023-05-22T09:06:30.697Z,999.90
2023-05-22T09:09:01.577Z,999.90
2023-05-22T09:11:29.719Z,999.90
2023-05-22T09:14:10.332Z,999.90
2023-05-22T09:16:48.654Z,999.90
2023-05-22T09:19:16.522Z,999.90
2023-05-22T09:21:44.850Z,999.90
2023-05-22T09:24:13.050Z,999.90
2023-05-22T09:26:41.538Z,999.90
2023-05-22T09:29:09.671Z,999.90
2023-05-22T09:31:42.923Z,999.90
2023-05-22T09:34:14.240Z,999.90
2023-05-22T09:36:43.122Z,999.90
2023-05-22T09:39:11.056Z,999.90
2023-05-22T09:41:40.517Z,999.90
2023-05-22T09:44:16.402Z,999.90
2023-05-22T09:46:47.129Z,999.90
2023-05-22T09:49:17.212Z,369.80
2023-05-22T09:51:48.546Z,504.83
2023-05-22T09:54:18.814Z,674.10
2023-05-22T09:56:50.153Z,668.00
2023-05-22T09:59:23.404Z,999.90
2023-05-22T10:01:51.911Z,999.90
2023-05-22T10:04:23.106Z,999.90
2023-05-22T10:06:52.827Z,981.20
2023-05-22T10:09:26.223Z,456.70
2023-05-22T10:11:57.389Z,390.83
2023-05-22T10:14:27.350Z,347.52
2023-05-22T10:17:02.068Z,98.50
2023-05-22T10:19:32.866Z,4.80
2023-05-22T10:22:02.073Z,4.65
2023-05-22T10:24:30.131Z,5.00
2023-05-22T10:26:58.389Z,844.45
2023-05-22T10:29:34.137Z,4.82
2023-05-22T10:32:13.497Z,953.85
2023-05-22T10:35:18.306Z,5.22
2023-05-22T10:37:51.550Z,173.73
2023-05-22T10:40:30.496Z,5.40
2023-05-22T10:43:02.784Z,4.90
2023-05-22T10:45:34.489Z,5.18
2023-05-22T10:48:07.234Z,5.40
2023-05-22T10:50:36.207Z,4.80
2023-05-22T10:53:25.093Z,6.00
2023-05-22T10:55:55.327Z,326.92
2023-05-22T10:58:29.211Z,5.38
2023-05-22T11:01:17.754Z,253.93
2023-05-22T11:03:51.258Z,418.80
2023-05-22T11:06:41.286Z,342.92
2023-05-22T11:09:30.916Z,475.00
2023-05-22T11:12:25.076Z,246.75
2023-05-22T11:15:09.027Z,542.38
2023-05-22T11:17:39.745Z,348.45
2023-05-22T11:20:21.110Z,4.78
2023-05-22T11:23:01.135Z,207.02
2023-05-22T11:25:29.253Z,4.78
2023-05-22T11:27:58.425Z,4.47
2023-05-22T11:30:28.642Z,4.65
2023-05-22T11:32:59.262Z,4.60
2023-05-22T11:35:28.322Z,4.88
2023-05-22T11:37:57.017Z,4.45
2023-05-22T11:40:29.356Z,4.15
2023-05-22T11:42:57.054Z,4.38
2023-05-22T11:45:25.424Z,4.32
2023-05-22T11:47:53.602Z,4.38
2023-05-22T11:50:40.167Z,4.75
2023-05-22T11:53:09.895Z,4.93
2023-05-22T11:55:37.754Z,5.22
2023-05-22T11:58:06.314Z,4.45
2023-05-22T12:00:34.295Z,4.60
2023-05-22T12:03:02.017Z,3.95
2023-05-22T12:05:32.283Z,4.15
2023-05-22T12:08:00.643Z,5.28
2023-05-22T12:10:28.128Z,5.18
2023-05-22T12:12:55.765Z,5.20
2023-05-22T12:15:24.633Z,4.25
2023-05-22T12:17:55.472Z,3.83
2023-05-22T12:20:23.048Z,4.47
2023-05-22T12:22:50.706Z,3.95
2023-05-22T12:25:20.240Z,4.13
2023-05-22T12:27:48.416Z,4.20
2023-05-22T12:30:16.964Z,4.95
2023-05-22T12:32:49.782Z,4.38
2023-05-22T12:35:18.118Z,4.38
2023-05-22T12:37:50.407Z,4.05
2023-05-22T12:40:18.359Z,4.38
2023-05-22T12:42:49.605Z,4.68
2023-05-22T12:45:18.197Z,4.30
2023-05-22T12:47:46.411Z,4.43
2023-05-22T12:50:14.668Z,4.72
2023-05-22T12:52:42.185Z,3.80
2023-05-22T12:55:11.743Z,4.50
2023-05-22T12:57:39.573Z,3.83
2023-05-22T13:00:08.257Z,3.88
2023-05-22T13:02:36.382Z,3.95
2023-05-22T13:05:04.745Z,3.80
2023-05-22T13:07:33.529Z,3.67
2023-05-22T13:10:01.043Z,3.88
2023-05-22T13:12:28.583Z,4.35
2023-05-22T13:14:56.544Z,5.20
2023-05-22T13:17:24.505Z,4.43
2023-05-22T13:19:53.158Z,4.22
2023-05-22T13:22:21.589Z,4.10
2023-05-22T13:24:49.703Z,3.28
2023-05-22T13:27:18.533Z,4.18
2023-05-22T13:29:46.060Z,3.97
2023-05-22T13:32:14.040Z,4.20
2023-05-22T13:34:41.979Z,4.55
2023-05-22T13:37:10.421Z,3.55
2023-05-22T13:39:37.991Z,4.53
2023-05-22T13:42:07.543Z,3.78
2023-05-22T13:44:35.843Z,3.95
2023-05-22T13:47:04.015Z,3.47
2023-05-22T13:49:31.595Z,4.35
2023-05-22T13:51:59.458Z,4.40
2023-05-22T13:54:27.894Z,4.05
2023-05-22T13:56:57.744Z,3.55
2023-05-22T13:59:26.157Z,3.83
2023-05-22T14:01:54.256Z,3.80
2023-05-22T14:04:21.908Z,3.65
2023-05-22T14:06:49.541Z,3.72
2023-05-22T14:09:17.898Z,4.55
2023-05-22T14:11:45.794Z,3.70
2023-05-22T14:14:13.507Z,3.80
2023-05-22T14:16:41.527Z,4.20
2023-05-22T14:19:09.591Z,3.60
2023-05-22T14:21:37.479Z,3.67
2023-05-22T14:24:05.595Z,3.85
2023-05-22T14:26:33.601Z,3.83
2023-05-22T14:29:01.443Z,3.33
2023-05-22T14:31:29.454Z,3.92
2023-05-22T14:33:57.596Z,4.57
2023-05-22T14:36:25.145Z,4.10
2023-05-22T14:38:57.002Z,3.53
2023-05-22T14:41:24.940Z,4.53
2023-05-22T14:43:52.562Z,4.53
2023-05-22T14:46:20.124Z,3.97
2023-05-22T14:48:47.747Z,3.92
2023-05-22T14:51:15.333Z,4.60
2023-05-22T14:53:43.331Z,4.50
2023-05-22T14:56:11.381Z,4.10
2023-05-22T14:58:38.922Z,4.72
2023-05-22T15:01:06.989Z,3.85
2023-05-22T15:03:34.522Z,4.07
2023-05-22T15:06:02.165Z,4.07
2023-05-22T15:08:29.836Z,4.03
2023-05-22T15:10:57.543Z,4.05
2023-05-22T15:13:25.550Z,4.10
2023-05-22T15:15:53.581Z,4.32
2023-05-22T15:18:21.291Z,4.40
2023-05-22T15:20:49.394Z,3.60
2023-05-22T15:23:17.006Z,4.30
2023-05-22T15:25:45.145Z,3.85
2023-05-22T15:28:12.771Z,4.35
2023-05-22T15:30:41.973Z,4.38
2023-05-22T15:33:09.627Z,4.05
2023-05-22T15:35:37.282Z,4.13
2023-05-22T15:38:06.139Z,3.83
2023-05-22T15:40:34.220Z,4.82
2023-05-22T15:43:04.114Z,3.92
2023-05-22T15:45:31.884Z,3.97
2023-05-22T15:47:59.718Z,4.03
2023-05-22T15:50:27.228Z,3.58
2023-05-22T15:52:55.276Z,3.83
2023-05-22T15:55:22.867Z,3.35
2023-05-22T15:57:50.630Z,3.53
2023-05-22T16:00:18.971Z,3.70
2023-05-22T16:02:47.026Z,3.30
2023-05-22T16:05:15.164Z,3.03
2023-05-22T16:07:42.770Z,4.43
2023-05-22T16:10:11.075Z,3.78
2023-05-22T16:12:41.862Z,4.30
2023-05-22T16:15:10.519Z,3.67
2023-05-22T16:17:39.689Z,4.13
2023-05-22T16:20:08.628Z,4.15
2023-05-22T16:22:48.003Z,4.13
2023-05-22T16:25:17.642Z,4.03
2023-05-22T16:27:45.708Z,3.95
2023-05-22T16:30:16.972Z,4.38
2023-05-22T16:32:48.540Z,3.80
2023-05-22T16:35:16.468Z,4.22
2023-05-22T16:37:44.003Z,4.90
2023-05-22T16:40:12.389Z,4.10
2023-05-22T16:42:40.498Z,4.40
2023-05-22T16:45:08.488Z,3.70
2023-05-22T16:47:36.751Z,4.47
2023-05-22T16:50:05.023Z,4.25
2023-05-22T16:52:33.643Z,4.45
2023-05-22T16:55:01.737Z,4.53
2023-05-22T16:57:29.446Z,4.57
2023-05-22T16:59:58.048Z,3.92
2023-05-22T17:02:26.514Z,4.28
2023-05-22T17:04:54.578Z,4.22
2023-05-22T17:07:22.594Z,4.22
2023-05-22T17:09:50.783Z,5.35
2023-05-22T17:12:18.554Z,7.05
2023-05-22T17:14:46.130Z,7.55
2023-05-22T17:17:13.644Z,6.03
2023-05-22T17:19:41.870Z,115.25
2023-05-22T17:22:09.906Z,101.85
2023-05-22T17:24:38.479Z,170.25
2023-05-22T17:27:06.816Z,6.13
2023-05-22T17:29:34.856Z,172.25
2023-05-22T17:32:05.323Z,232.05
2023-05-22T17:34:33.438Z,322.38
2023-05-22T17:37:00.956Z,6.45
2023-05-22T17:39:28.719Z,5.55
2023-05-22T17:41:56.874Z,318.88
2023-05-22T17:44:25.910Z,5.97
2023-05-22T17:46:53.537Z,6.00
2023-05-22T17:49:21.471Z,5.95
2023-05-22T17:51:50.310Z,5.50
2023-05-22T17:54:17.982Z,5.88
2023-05-22T17:56:45.598Z,5.70
2023-05-22T17:59:13.583Z,5.80
2023-05-22T18:01:41.324Z,6.25
2023-05-22T18:04:08.918Z,5.38
2023-05-22T18:06:37.483Z,5.23
2023-05-22T18:09:07.710Z,5.53
2023-05-22T18:11:36.124Z,6.22
2023-05-22T18:14:04.501Z,6.20
2023-05-22T18:16:32.125Z,6.47
2023-05-22T18:18:59.785Z,5.18
2023-05-22T18:21:27.432Z,6.82
2023-05-22T18:23:55.706Z,5.72
2023-05-22T18:26:23.433Z,6.22
2023-05-22T18:28:51.518Z,6.05
2023-05-22T18:31:19.240Z,6.10
2023-05-22T18:33:47.396Z,6.00
2023-05-22T18:36:16.194Z,5.53
2023-05-22T18:38:44.676Z,6.53
2023-05-22T18:41:13.186Z,6.03
2023-05-22T18:43:41.371Z,5.82
2023-05-22T18:46:09.679Z,7.20
2023-05-22T18:48:37.808Z,6.93
2023-05-22T18:51:05.660Z,6.45
2023-05-22T18:53:33.676Z,6.30
2023-05-22T18:56:01.978Z,5.97
2023-05-22T18:58:30.135Z,6.30
2023-05-22T19:00:57.720Z,7.00
2023-05-22T19:03:25.418Z,7.43
2023-05-22T19:05:53.439Z,6.53
2023-05-22T19:08:21.636Z,6.68
2023-05-22T19:10:49.216Z,7.03
2023-05-22T19:13:17.420Z,6.72
2023-05-22T19:15:46.442Z,9.02
2023-05-22T19:18:14.065Z,8.30
2023-05-22T19:20:41.881Z,7.63
2023-05-22T19:23:11.649Z,7.72
2023-05-22T19:25:39.323Z,7.55
2023-05-22T19:28:07.253Z,7.63
2023-05-22T19:30:35.974Z,9.00
2023-05-22T19:33:04.162Z,8.48
2023-05-22T19:35:32.914Z,9.82
2023-05-22T19:38:01.344Z,19.17
2023-05-22T19:40:29.625Z,9.18
2023-05-22T19:42:58.271Z,14.60
2023-05-22T19:45:28.759Z,13.90
2023-05-22T19:47:56.336Z,18.17
2023-05-22T19:50:24.420Z,24.27
2023-05-22T19:52:52.009Z,88.30
2023-05-22T19:55:20.227Z,43.97
2023-05-22T19:57:47.916Z,148.23
2023-05-22T20:00:16.402Z,120.28
2023-05-22T20:02:44.000Z,153.35
2023-05-22T20:05:15.444Z,94.75
2023-05-22T20:07:43.591Z,84.40
2023-05-22T20:10:12.172Z,99.90
2023-05-22T20:12:40.801Z,287.83
2023-05-22T20:15:10.712Z,352.88
2023-05-22T20:17:38.564Z,248.07
2023-05-22T20:20:07.981Z,217.63
2023-05-22T20:22:36.281Z,221.52
2023-05-22T20:25:05.304Z,304.73
2023-05-22T20:27:33.364Z,274.52
2023-05-22T20:30:01.699Z,285.85
2023-05-22T20:32:30.294Z,514.95
2023-05-22T20:34:58.429Z,402.23
2023-05-22T20:37:26.628Z,443.20
2023-05-22T20:39:54.670Z,363.55
2023-05-22T20:42:22.969Z,331.48
2023-05-22T20:44:52.597Z,371.25
2023-05-22T20:47:20.583Z,731.30
2023-05-22T20:49:48.394Z,581.03
2023-05-22T20:52:16.082Z,571.50
2023-05-22T20:54:44.077Z,659.17
2023-05-22T20:57:12.082Z,703.90
2023-05-22T20:59:39.604Z,686.83
2023-05-22T21:02:08.436Z,648.70
2023-05-22T21:04:36.565Z,661.30
2023-05-22T21:07:04.993Z,660.17
2023-05-22T21:09:33.072Z,710.40
2023-05-22T21:12:01.693Z,773.70
2023-05-22T21:14:29.392Z,706.80
2023-05-22T21:16:56.981Z,644.40
2023-05-22T21:19:25.026Z,702.40
2023-05-22T21:21:52.836Z,842.88
2023-05-22T21:24:21.885Z,793.80
2023-05-22T21:26:50.124Z,700.42
2023-05-22T21:29:20.575Z,780.72
2023-05-22T21:31:48.610Z,725.70
2023-05-22T21:34:16.348Z,807.70
2023-05-22T21:36:44.475Z,728.28
2023-05-22T21:39:12.390Z,749.83
2023-05-22T21:41:40.162Z,882.65
2023-05-22T21:44:10.013Z,855.22
2023-05-22T21:46:38.152Z,999.90
2023-05-22T21:49:07.414Z,999.90
2023-05-22T21:51:35.632Z,999.90
2023-05-22T21:54:03.756Z,999.90
2023-05-22T21:56:31.628Z,978.53
2023-05-22T21:58:59.733Z,949.80
2023-05-22T22:01:27.594Z,954.38
2023-05-22T22:03:55.220Z,984.58
2023-05-22T22:06:23.221Z,995.50
2023-05-22T22:08:53.246Z,991.47
2023-05-22T22:11:21.370Z,999.90
2023-05-22T22:13:48.896Z,999.90
2023-05-22T22:16:17.582Z,999.90
2023-05-22T22:18:45.113Z,999.90
2023-05-22T22:21:13.748Z,999.90
2023-05-22T22:23:42.364Z,999.90
2023-05-22T22:26:12.199Z,999.90
2023-05-22T22:28:39.718Z,999.90
2023-05-22T22:31:07.137Z,999.90
2023-05-22T22:33:34.553Z,999.90
2023-05-22T22:36:02.998Z,999.90
2023-05-22T22:38:35.127Z,999.90
2023-05-22T22:41:04.802Z,999.90
2023-05-22T22:43:32.620Z,999.90
2023-05-22T22:46:00.737Z,999.90
2023-05-22T22:48:28.839Z,999.90
2023-05-22T22:50:56.496Z,999.90
2023-05-22T22:53:24.439Z,999.90
2023-05-22T22:55:56.820Z,999.90
2023-05-22T22:58:24.613Z,999.90
2023-05-22T23:00:52.561Z,999.90
2023-05-22T23:03:20.722Z,999.90
2023-05-22T23:05:49.553Z,999.90
2023-05-22T23:08:17.228Z,999.90
2023-05-22T23:10:44.845Z,999.90
2023-05-22T23:13:12.450Z,999.90
2023-05-22T23:15:40.658Z,999.90
2023-05-22T23:18:08.415Z,999.90
2023-05-22T23:20:36.004Z,999.90
2023-05-22T23:23:03.606Z,999.90
2023-05-22T23:25:31.176Z,999.90
2023-05-22T23:27:58.855Z,999.90
2023-05-22T23:30:26.524Z,999.90
2023-05-22T23:32:54.048Z,998.42
2023-05-22T23:35:21.776Z,999.90
2023-05-22T23:37:49.712Z,998.78
2023-05-22T23:40:17.842Z,999.63
2023-05-22T23:42:45.336Z,997.60
2023-05-22T23:45:13.056Z,996.72
2023-05-22T23:47:40.761Z,995.88
2023-05-22T23:50:08.776Z,999.90
2023-05-22T23:52:36.701Z,998.42
2023-05-22T23:55:04.603Z,999.90
2023-05-22T23:57:32.601Z,999.00
